sensor_id;sensor_type;location;lat;lon;timestamp;pressure;altitude;pressure_sealevel;temperature;humidity
41686;BME280;27370;42.764;23.432;2023-04-24T11:57:46;95028.78;;;19.72;65.89
41686;BME280;27370;42.764;23.432;2023-04-24T12:00:17;95027.03;;;19.54;61.04
41686;BME280;27370;42.764;23.432;2023-04-24T12:02:44;95024.25;;;19.69;61.21
41686;BME280;27370;42.764;23.432;2023-04-24T12:05:22;95024.91;;;19.64;62.99
41686;BME280;27370;42.764;23.432;2023-04-24T12:07:48;95019.84;;;19.77;61.11
41686;BME280;27370;42.764;23.432;2023-04-24T12:10:14;95013.94;;;20.31;57.52
41686;BME280;27370;42.764;23.432;2023-04-24T12:12:40;95011.13;;;20.45;55.16
41686;BME280;27370;42.764;23.432;2023-04-24T12:15:09;95000.97;;;20.83;60.32
41686;BME280;27370;42.764;23.432;2023-04-24T12:17:35;94997.44;;;21.14;56.48
41686;BME280;27370;42.764;23.432;2023-04-24T12:20:07;94993.97;;;21.56;61.22
41686;BME280;27370;42.764;23.432;2023-04-24T12:25:15;94983.06;;;21.73;52.10
41686;BME280;27370;42.764;23.432;2023-04-24T12:27:41;94986.13;;;21.44;53.39
41686;BME280;27370;42.764;23.432;2023-04-24T12:30:13;94977.78;;;21.27;53.73
41686;BME280;27370;42.764;23.432;2023-04-24T12:32:44;94974.56;;;20.97;52.96
41686;BME280;27370;42.764;23.432;2023-04-24T12:35:10;94961.06;;;20.67;53.75
41686;BME280;27370;42.764;23.432;2023-04-24T12:37:36;94959.56;;;20.66;54.79
41686;BME280;27370;42.764;23.432;2023-04-24T12:40:09;94963.91;;;20.78;55.20
41686;BME280;27370;42.764;23.432;2023-04-24T12:42:42;94959.97;;;20.85;52.44
41686;BME280;27370;42.764;23.432;2023-04-24T12:45:08;94950.00;;;20.93;54.55
41686;BME280;27370;42.764;23.432;2023-04-24T12:47:34;94951.59;;;21.05;52.20
41686;BME280;27370;42.764;23.432;2023-04-24T12:50:01;94942.69;;;20.85;55.64
41686;BME280;27370;42.764;23.432;2023-04-24T12:52:29;94939.06;;;20.67;57.97
41686;BME280;27370;42.764;23.432;2023-04-24T12:54:57;94920.31;;;20.40;52.84
41686;BME280;27370;42.764;23.432;2023-04-24T12:57:23;94921.72;;;20.30;54.07
41686;BME280;27370;42.764;23.432;2023-04-24T12:59:49;94925.56;;;20.38;54.86
41686;BME280;27370;42.764;23.432;2023-04-24T13:02:15;94932.97;;;20.06;55.47
41686;BME280;27370;42.764;23.432;2023-04-24T13:04:44;94931.88;;;20.18;59.09
41686;BME280;27370;42.764;23.432;2023-04-24T13:07:11;94933.03;;;20.63;58.80
41686;BME280;27370;42.764;23.432;2023-04-24T13:09:37;94926.00;;;20.94;56.66
41686;BME280;27370;42.764;23.432;2023-04-24T13:12:03;94913.31;;;21.07;55.72
41686;BME280;27370;42.764;23.432;2023-04-24T13:14:31;94912.53;;;20.64;56.05
41686;BME280;27370;42.764;23.432;2023-04-24T13:16:56;94924.41;;;20.50;55.20
41686;BME280;27370;42.764;23.432;2023-04-24T13:19:24;94919.34;;;20.17;57.65
41686;BME280;27370;42.764;23.432;2023-04-24T13:21:51;94913.50;;;19.83;61.58
41686;BME280;27370;42.764;23.432;2023-04-24T13:24:17;94904.16;;;19.70;64.05
41686;BME280;27370;42.764;23.432;2023-04-24T13:26:43;94912.50;;;19.61;62.64
41686;BME280;27370;42.764;23.432;2023-04-24T13:29:08;94914.78;;;19.62;63.07
41686;BME280;27370;42.764;23.432;2023-04-24T13:31:34;94904.75;;;19.59;61.71
41686;BME280;27370;42.764;23.432;2023-04-24T13:34:00;94902.81;;;19.45;62.70
41686;BME280;27370;42.764;23.432;2023-04-24T13:36:26;94889.75;;;18.99;66.26
41686;BME280;27370;42.764;23.432;2023-04-24T13:38:52;94883.19;;;19.11;69.97
41686;BME280;27370;42.764;23.432;2023-04-24T13:41:17;94896.16;;;19.11;70.89
41686;BME280;27370;42.764;23.432;2023-04-24T13:43:43;94875.88;;;18.88;68.91
41686;BME280;27370;42.764;23.432;2023-04-24T13:46:08;94867.72;;;18.93;70.16
41686;BME280;27370;42.764;23.432;2023-04-24T13:48:34;94872.28;;;19.37;69.86
41686;BME280;27370;42.764;23.432;2023-04-24T13:51:00;94873.22;;;19.75;68.22
41686;BME280;27370;42.764;23.432;2023-04-24T13:53:25;94857.53;;;19.81;70.61
41686;BME280;27370;42.764;23.432;2023-04-24T13:55:51;94862.22;;;20.01;64.58
41686;BME280;27370;42.764;23.432;2023-04-24T13:58:17;94855.66;;;19.93;63.44
41686;BME280;27370;42.764;23.432;2023-04-24T14:00:42;94848.72;;;19.71;65.73
41686;BME280;27370;42.764;23.432;2023-04-24T14:03:08;94845.06;;;19.80;65.46
41686;BME280;27370;42.764;23.432;2023-04-24T14:05:33;94839.28;;;19.78;65.68
41686;BME280;27370;42.764;23.432;2023-04-24T14:07:59;94834.97;;;19.97;62.82
41686;BME280;27370;42.764;23.432;2023-04-24T14:10:25;94836.28;;;19.76;66.22
41686;BME280;27370;42.764;23.432;2023-04-24T14:12:52;94831.19;;;19.69;58.85
41686;BME280;27370;42.764;23.432;2023-04-24T14:15:18;94832.25;;;19.51;60.72
41686;BME280;27370;42.764;23.432;2023-04-24T14:17:44;94820.44;;;19.45;63.36
41686;BME280;27370;42.764;23.432;2023-04-24T14:20:10;94811.34;;;19.53;58.95
41686;BME280;27370;42.764;23.432;2023-04-24T14:22:35;94812.13;;;19.60;61.77
41686;BME280;27370;42.764;23.432;2023-04-24T14:25:01;94812.03;;;19.74;58.05
41686;BME280;27370;42.764;23.432;2023-04-24T14:27:26;94806.97;;;19.67;58.21
41686;BME280;27370;42.764;23.432;2023-04-24T14:29:52;94806.25;;;19.46;60.26
41686;BME280;27370;42.764;23.432;2023-04-24T14:32:18;94810.63;;;19.38;57.22
41686;BME280;27370;42.764;23.432;2023-04-24T14:34:43;94806.75;;;19.24;55.93
41686;BME280;27370;42.764;23.432;2023-04-24T14:37:09;94811.56;;;19.30;59.15
41686;BME280;27370;42.764;23.432;2023-04-24T14:39:34;94814.78;;;19.08;60.39
41686;BME280;27370;42.764;23.432;2023-04-24T14:42:00;94806.13;;;18.74;67.86
41686;BME280;27370;42.764;23.432;2023-04-24T14:44:26;94815.91;;;18.11;75.53
41686;BME280;27370;42.764;23.432;2023-04-24T14:46:52;94809.56;;;17.60;80.65
41686;BME280;27370;42.764;23.432;2023-04-24T14:49:18;94821.16;;;17.55;82.60
41686;BME280;27370;42.764;23.432;2023-04-24T14:51:44;94813.78;;;17.32;84.96
41686;BME280;27370;42.764;23.432;2023-04-24T14:54:09;94819.63;;;17.39;87.05
41686;BME280;27370;42.764;23.432;2023-04-24T14:56:35;94818.97;;;17.30;88.79
41686;BME280;27370;42.764;23.432;2023-04-24T14:59:01;94808.25;;;17.17;86.15
41686;BME280;27370;42.764;23.432;2023-04-24T15:01:26;94808.13;;;16.97;85.76
41686;BME280;27370;42.764;23.432;2023-04-24T15:03:52;94819.19;;;17.02;88.04
41686;BME280;27370;42.764;23.432;2023-04-24T15:06:17;94813.72;;;17.02;90.78
41686;BME280;27370;42.764;23.432;2023-04-24T15:08:43;94798.81;;;17.03;89.97
41686;BME280;27370;42.764;23.432;2023-04-24T15:11:10;94806.22;;;16.88;92.34
41686;BME280;27370;42.764;23.432;2023-04-24T15:13:35;94822.53;;;16.73;91.60
41686;BME280;27370;42.764;23.432;2023-04-24T15:16:01;94818.06;;;16.61;91.87
41686;BME280;27370;42.764;23.432;2023-04-24T15:18:27;94829.06;;;16.43;93.06
41686;BME280;27370;42.764;23.432;2023-04-24T15:20:55;94821.63;;;16.43;95.44
41686;BME280;27370;42.764;23.432;2023-04-24T15:23:20;94829.63;;;16.23;97.43
41686;BME280;27370;42.764;23.432;2023-04-24T15:25:46;94821.69;;;16.67;94.67
41686;BME280;27370;42.764;23.432;2023-04-24T15:28:11;94833.34;;;16.77;95.56
41686;BME280;27370;42.764;23.432;2023-04-24T15:30:37;94822.78;;;16.84;93.05
41686;BME280;27370;42.764;23.432;2023-04-24T15:33:03;94840.56;;;16.56;94.87
41686;BME280;27370;42.764;23.432;2023-04-24T15:35:29;94837.84;;;16.47;96.76
41686;BME280;27370;42.764;23.432;2023-04-24T15:37:54;94858.94;;;16.56;97.09
41686;BME280;27370;42.764;23.432;2023-04-24T15:40:20;94855.19;;;16.02;99.76
41686;BME280;27370;42.764;23.432;2023-04-24T15:42:46;94836.09;;;16.35;98.06
41686;BME280;27370;42.764;23.432;2023-04-24T15:45:12;94852.63;;;16.40;100.00
41686;BME280;27370;42.764;23.432;2023-04-24T15:47:38;94842.34;;;16.26;100.00
41686;BME280;27370;42.764;23.432;2023-04-24T15:50:04;94837.28;;;16.01;100.00
41686;BME280;27370;42.764;23.432;2023-04-24T15:52:30;94844.78;;;15.73;100.00
41686;BME280;27370;42.764;23.432;2023-04-24T15:54:56;94845.84;;;15.39;100.00
41686;BME280;27370;42.764;23.432;2023-04-24T15:57:21;94849.19;;;15.24;100.00
41686;BME280;27370;42.764;23.432;2023-04-24T15:59:47;94850.25;;;14.99;100.00
41686;BME280;27370;42.764;23.432;2023-04-24T16:02:13;94861.88;;;14.82;100.00
41686;BME280;27370;42.764;23.432;2023-04-24T16:04:44;94875.34;;;14.36;100.00
41686;BME280;27370;42.764;23.432;2023-04-24T16:07:11;94877.53;;;13.88;100.00
41686;BME280;27370;42.764;23.432;2023-04-24T16:09:37;94882.38;;;13.62;100.00
41686;BME280;27370;42.764;23.432;2023-04-24T16:12:03;94898.81;;;13.37;100.00
41686;BME280;27370;42.764;23.432;2023-04-24T16:14:29;94902.94;;;13.29;100.00
41686;BME280;27370;42.764;23.432;2023-04-24T16:16:55;94906.03;;;13.18;100.00
41686;BME280;27370;42.764;23.432;2023-04-24T16:19:20;94910.97;;;12.85;100.00
41686;BME280;27370;42.764;23.432;2023-04-24T16:21:46;94917.63;;;12.71;100.00
41686;BME280;27370;42.764;23.432;2023-04-24T16:24:12;94929.78;;;12.67;100.00
41686;BME280;27370;42.764;23.432;2023-04-24T16:26:38;94917.41;;;12.53;100.00
41686;BME280;27370;42.764;23.432;2023-04-24T16:29:04;94930.88;;;12.44;100.00
41686;BME280;27370;42.764;23.432;2023-04-24T16:31:30;94928.41;;;12.24;100.00
41686;BME280;27370;42.764;23.432;2023-04-24T16:33:56;94935.97;;;12.04;100.00
41686;BME280;27370;42.764;23.432;2023-04-24T16:36:21;94944.16;;;11.87;100.00
41686;BME280;27370;42.764;23.432;2023-04-24T16:38:47;94956.44;;;11.92;100.00
41686;BME280;27370;42.764;23.432;2023-04-24T16:41:16;94957.16;;;11.80;100.00
41686;BME280;27370;42.764;23.432;2023-04-24T16:43:42;94967.25;;;11.79;100.00
41686;BME280;27370;42.764;23.432;2023-04-24T16:46:08;94959.59;;;11.74;100.00
41686;BME280;27370;42.764;23.432;2023-04-24T16:48:34;94972.69;;;11.63;100.00
41686;BME280;27370;42.764;23.432;2023-04-24T16:51:00;94968.38;;;11.65;100.00
41686;BME280;27370;42.764;23.432;2023-04-24T16:53:26;94972.59;;;11.83;100.00
41686;BME280;27370;42.764;23.432;2023-04-24T16:55:52;94965.66;;;11.94;100.00
41686;BME280;27370;42.764;23.432;2023-04-24T16:58:17;94990.28;;;11.87;100.00
41686;BME280;27370;42.764;23.432;2023-04-24T17:00:43;94997.19;;;12.05;100.00
41686;BME280;27370;42.764;23.432;2023-04-24T17:03:10;94994.13;;;12.03;100.00
41686;BME280;27370;42.764;23.432;2023-04-24T17:05:36;94996.69;;;11.93;100.00
41686;BME280;27370;42.764;23.432;2023-04-24T17:08:01;95003.03;;;12.03;100.00
41686;BME280;27370;42.764;23.432;2023-04-24T17:10:28;94963.06;;;11.91;100.00
41686;BME280;27370;42.764;23.432;2023-04-24T17:12:54;94942.09;;;11.79;100.00
41686;BME280;27370;42.764;23.432;2023-04-24T17:15:21;94949.16;;;11.60;100.00
41686;BME280;27370;42.764;23.432;2023-04-24T17:17:48;94952.13;;;11.20;100.00
41686;BME280;27370;42.764;23.432;2023-04-24T17:20:14;94979.56;;;11.06;100.00
41686;BME280;27370;42.764;23.432;2023-04-24T17:22:40;95010.88;;;10.91;100.00
41686;BME280;27370;42.764;23.432;2023-04-24T17:25:07;95019.59;;;10.98;100.00
41686;BME280;27370;42.764;23.432;2023-04-24T17:27:33;95023.66;;;11.07;100.00
41686;BME280;27370;42.764;23.432;2023-04-24T17:29:59;95028.50;;;10.99;100.00
41686;BME280;27370;42.764;23.432;2023-04-24T17:32:25;95019.94;;;11.00;100.00
41686;BME280;27370;42.764;23.432;2023-04-24T17:34:51;95021.72;;;11.23;100.00
41686;BME280;27370;42.764;23.432;2023-04-24T17:37:17;95019.19;;;11.32;100.00
41686;BME280;27370;42.764;23.432;2023-04-24T17:39:44;95022.84;;;11.10;100.00
41686;BME280;27370;42.764;23.432;2023-04-24T17:42:10;95009.28;;;10.93;100.00
41686;BME280;27370;42.764;23.432;2023-04-24T17:44:36;95018.72;;;10.85;100.00
41686;BME280;27370;42.764;23.432;2023-04-24T17:47:01;95008.06;;;10.78;100.00
41686;BME280;27370;42.764;23.432;2023-04-24T17:49:29;95016.41;;;10.87;100.00
41686;BME280;27370;42.764;23.432;2023-04-24T17:51:55;95020.69;;;10.85;100.00
41686;BME280;27370;42.764;23.432;2023-04-24T17:54:21;95016.66;;;10.93;100.00
41686;BME280;27370;42.764;23.432;2023-04-24T17:56:47;95026.97;;;10.98;100.00
41686;BME280;27370;42.764;23.432;2023-04-24T17:59:12;95031.56;;;11.17;100.00
41686;BME280;27370;42.764;23.432;2023-04-24T18:01:38;95035.44;;;11.00;100.00
41686;BME280;27370;42.764;23.432;2023-04-24T18:04:04;95045.53;;;11.16;100.00
41686;BME280;27370;42.764;23.432;2023-04-24T18:06:29;95049.50;;;11.11;100.00
41686;BME280;27370;42.764;23.432;2023-04-24T18:08:55;95062.03;;;11.21;100.00
41686;BME280;27370;42.764;23.432;2023-04-24T18:11:20;95062.38;;;11.23;100.00
41686;BME280;27370;42.764;23.432;2023-04-24T18:13:46;95058.56;;;11.21;100.00
41686;BME280;27370;42.764;23.432;2023-04-24T18:16:12;95079.22;;;11.31;100.00
41686;BME280;27370;42.764;23.432;2023-04-24T18:18:38;95090.25;;;11.40;100.00
41686;BME280;27370;42.764;23.432;2023-04-24T18:21:03;95103.03;;;11.56;100.00
41686;BME280;27370;42.764;23.432;2023-04-24T18:23:29;95114.66;;;11.56;100.00
41686;BME280;27370;42.764;23.432;2023-04-24T18:25:55;95114.31;;;11.54;100.00
41686;BME280;27370;42.764;23.432;2023-04-24T18:28:20;95111.50;;;11.58;100.00
41686;BME280;27370;42.764;23.432;2023-04-24T18:30:46;95116.50;;;11.59;100.00
41686;BME280;27370;42.764;23.432;2023-04-24T18:33:12;95122.94;;;11.65;100.00
41686;BME280;27370;42.764;23.432;2023-04-24T18:35:37;95113.94;;;11.69;100.00
41686;BME280;27370;42.764;23.432;2023-04-24T18:38:03;95119.72;;;11.71;100.00
41686;BME280;27370;42.764;23.432;2023-04-24T18:40:30;95121.56;;;11.74;100.00
41686;BME280;27370;42.764;23.432;2023-04-24T18:42:55;95101.38;;;11.78;100.00
41686;BME280;27370;42.764;23.432;2023-04-24T18:45:21;95102.13;;;11.79;100.00
41686;BME280;27370;42.764;23.432;2023-04-24T18:47:47;95080.75;;;11.81;100.00
41686;BME280;27370;42.764;23.432;2023-04-24T18:50:12;95059.38;;;11.83;100.00
41686;BME280;27370;42.764;23.432;2023-04-24T18:52:39;95017.09;;;11.98;100.00
41686;BME280;27370;42.764;23.432;2023-04-24T18:55:05;95016.13;;;11.92;100.00
41686;BME280;27370;42.764;23.432;2023-04-24T18:57:32;95019.41;;;11.54;100.00
41686;BME280;27370;42.764;23.432;2023-04-24T18:59:57;95046.34;;;11.45;100.00
41686;BME280;27370;42.764;23.432;2023-04-24T19:02:23;95074.56;;;11.31;100.00
41686;BME280;27370;42.764;23.432;2023-04-24T19:04:49;95124.47;;;11.34;100.00
41686;BME280;27370;42.764;23.432;2023-04-24T19:07:15;95149.38;;;11.45;100.00
41686;BME280;27370;42.764;23.432;2023-04-24T19:09:40;95153.28;;;11.44;100.00
41686;BME280;27370;42.764;23.432;2023-04-24T19:12:06;95152.09;;;11.45;100.00
41686;BME280;27370;42.764;23.432;2023-04-24T19:14:32;95151.31;;;11.45;100.00
41686;BME280;27370;42.764;23.432;2023-04-24T19:16:58;95146.16;;;11.34;100.00
41686;BME280;27370;42.764;23.432;2023-04-24T19:19:23;95146.28;;;11.27;100.00
41686;BME280;27370;42.764;23.432;2023-04-24T19:21:50;95160.47;;;11.34;100.00
41686;BME280;27370;42.764;23.432;2023-04-24T19:24:16;95157.75;;;11.34;100.00
41686;BME280;27370;42.764;23.432;2023-04-24T19:26:43;95161.16;;;11.39;100.00
41686;BME280;27370;42.764;23.432;2023-04-24T19:29:10;95160.63;;;11.44;100.00
41686;BME280;27370;42.764;23.432;2023-04-24T19:31:35;95175.28;;;11.46;100.00
41686;BME280;27370;42.764;23.432;2023-04-24T19:34:01;95180.91;;;11.55;100.00
41686;BME280;27370;42.764;23.432;2023-04-24T19:36:28;95162.28;;;11.57;100.00
41686;BME280;27370;42.764;23.432;2023-04-24T19:38:54;95146.00;;;11.90;100.00
41686;BME280;27370;42.764;23.432;2023-04-24T19:41:19;95144.06;;;11.90;100.00
41686;BME280;27370;42.764;23.432;2023-04-24T19:43:45;95131.56;;;11.77;100.00
41686;BME280;27370;42.764;23.432;2023-04-24T19:46:12;95113.09;;;11.72;100.00
41686;BME280;27370;42.764;23.432;2023-04-24T19:48:37;95117.63;;;11.78;100.00
41686;BME280;27370;42.764;23.432;2023-04-24T19:51:03;95109.38;;;11.65;100.00
41686;BME280;27370;42.764;23.432;2023-04-24T19:53:29;95110.91;;;11.66;100.00
41686;BME280;27370;42.764;23.432;2023-04-24T19:55:54;95096.41;;;11.73;100.00
41686;BME280;27370;42.764;23.432;2023-04-24T19:58:20;95088.72;;;11.55;100.00
41686;BME280;27370;42.764;23.432;2023-04-24T20:00:45;95095.81;;;11.49;100.00
41686;BME280;27370;42.764;23.432;2023-04-24T20:03:11;95099.56;;;11.39;100.00
41686;BME280;27370;42.764;23.432;2023-04-24T20:05:37;95100.75;;;11.38;100.00
41686;BME280;27370;42.764;23.432;2023-04-24T20:08:03;95085.25;;;11.39;100.00
41686;BME280;27370;42.764;23.432;2023-04-24T20:10:28;95096.25;;;11.48;100.00
41686;BME280;27370;42.764;23.432;2023-04-24T20:12:54;95086.94;;;11.49;100.00
41686;BME280;27370;42.764;23.432;2023-04-24T20:15:20;95076.34;;;11.38;100.00
41686;BME280;27370;42.764;23.432;2023-04-24T20:17:46;95079.59;;;11.33;100.00
41686;BME280;27370;42.764;23.432;2023-04-24T20:20:11;95069.75;;;11.39;100.00
41686;BME280;27370;42.764;23.432;2023-04-24T20:22:37;95085.00;;;11.33;100.00
41686;BME280;27370;42.764;23.432;2023-04-24T20:25:09;95073.97;;;11.40;100.00
41686;BME280;27370;42.764;23.432;2023-04-24T20:27:35;95067.38;;;11.41;100.00
41686;BME280;27370;42.764;23.432;2023-04-24T20:30:02;95063.97;;;11.53;100.00
41686;BME280;27370;42.764;23.432;2023-04-24T20:32:28;95059.41;;;11.34;100.00
41686;BME280;27370;42.764;23.432;2023-04-24T20:34:53;95059.91;;;11.45;100.00
41686;BME280;27370;42.764;23.432;2023-04-24T20:37:19;64952.78;;;-141.99;100.00
41686;BME280;27370;42.764;23.432;2023-04-24T20:39:45;64952.78;;;-141.99;100.00
41686;BME280;27370;42.764;23.432;2023-04-24T20:42:10;64952.78;;;-141.99;100.00
41686;BME280;27370;42.764;23.432;2023-04-24T20:44:37;64952.78;;;-141.99;100.00
41686;BME280;27370;42.764;23.432;2023-04-24T20:47:02;64952.78;;;-141.99;100.00
41686;BME280;27370;42.764;23.432;2023-04-24T20:49:28;64952.78;;;-141.99;100.00
41686;BME280;27370;42.764;23.432;2023-04-24T20:51:54;64952.78;;;-141.99;100.00
41686;BME280;27370;42.764;23.432;2023-04-24T20:54:20;64952.78;;;-141.99;100.00
41686;BME280;27370;42.764;23.432;2023-04-24T20:56:46;64952.78;;;-141.99;100.00
41686;BME280;27370;42.764;23.432;2023-04-24T20:59:11;64952.78;;;-141.99;100.00
41686;BME280;27370;42.764;23.432;2023-04-24T21:01:37;64952.78;;;-141.99;100.00
41686;BME280;27370;42.764;23.432;2023-04-24T21:04:03;64952.78;;;-141.99;100.00
41686;BME280;27370;42.764;23.432;2023-04-24T21:06:28;64952.78;;;-141.99;100.00
41686;BME280;27370;42.764;23.432;2023-04-24T21:08:55;64952.78;;;-141.99;100.00
41686;BME280;27370;42.764;23.432;2023-04-24T21:11:20;64952.78;;;-141.99;100.00
41686;BME280;27370;42.764;23.432;2023-04-24T21:13:46;64952.78;;;-141.99;100.00
41686;BME280;27370;42.764;23.432;2023-04-24T21:16:11;64952.78;;;-141.99;100.00
41686;BME280;27370;42.764;23.432;2023-04-24T21:18:37;64952.78;;;-141.99;100.00
41686;BME280;27370;42.764;23.432;2023-04-24T21:21:07;64952.78;;;-141.99;100.00
41686;BME280;27370;42.764;23.432;2023-04-24T21:23:33;64952.78;;;-141.99;100.00
41686;BME280;27370;42.764;23.432;2023-04-24T21:25:59;64952.78;;;-141.99;100.00
41686;BME280;27370;42.764;23.432;2023-04-24T21:28:24;64952.78;;;-141.99;100.00
41686;BME280;27370;42.764;23.432;2023-04-24T21:30:50;64952.78;;;-141.99;100.00
41686;BME280;27370;42.764;23.432;2023-04-24T21:33:16;64952.78;;;-141.99;100.00
41686;BME280;27370;42.764;23.432;2023-04-24T21:35:41;64952.78;;;-141.99;100.00
41686;BME280;27370;42.764;23.432;2023-04-24T21:38:07;64952.78;;;-141.99;100.00
41686;BME280;27370;42.764;23.432;2023-04-24T21:40:32;64952.78;;;-141.99;100.00
41686;BME280;27370;42.764;23.432;2023-04-24T21:42:58;64952.78;;;-141.99;100.00
41686;BME280;27370;42.764;23.432;2023-04-24T21:45:24;64952.78;;;-141.99;100.00
41686;BME280;27370;42.764;23.432;2023-04-24T21:47:49;64952.78;;;-141.99;100.00
41686;BME280;27370;42.764;23.432;2023-04-24T21:50:15;64952.78;;;-141.99;100.00
41686;BME280;27370;42.764;23.432;2023-04-24T21:52:40;64952.78;;;-141.99;100.00
41686;BME280;27370;42.764;23.432;2023-04-24T21:55:06;64952.78;;;-141.99;100.00
41686;BME280;27370;42.764;23.432;2023-04-24T21:57:32;64952.78;;;-141.99;100.00
41686;BME280;27370;42.764;23.432;2023-04-24T21:59:58;64952.78;;;-141.99;100.00
41686;BME280;27370;42.764;23.432;2023-04-24T22:02:23;64952.78;;;-141.99;100.00
41686;BME280;27370;42.764;23.432;2023-04-24T22:04:49;64952.78;;;-141.99;100.00
41686;BME280;27370;42.764;23.432;2023-04-24T22:07:14;64952.78;;;-141.99;100.00
41686;BME280;27370;42.764;23.432;2023-04-24T22:09:40;64952.78;;;-141.99;100.00
41686;BME280;27370;42.764;23.432;2023-04-24T22:12:06;64952.78;;;-141.99;100.00
41686;BME280;27370;42.764;23.432;2023-04-24T22:14:31;64952.78;;;-141.99;100.00
41686;BME280;27370;42.764;23.432;2023-04-24T22:16:57;64952.78;;;-141.99;100.00
41686;BME280;27370;42.764;23.432;2023-04-24T22:19:22;64952.78;;;-141.99;100.00
41686;BME280;27370;42.764;23.432;2023-04-24T22:21:50;64952.78;;;-141.99;100.00
41686;BME280;27370;42.764;23.432;2023-04-24T22:24:17;64952.78;;;-141.99;100.00
41686;BME280;27370;42.764;23.432;2023-04-24T22:26:42;64952.78;;;-141.99;100.00
41686;BME280;27370;42.764;23.432;2023-04-24T22:29:08;64952.78;;;-141.99;100.00
41686;BME280;27370;42.764;23.432;2023-04-24T22:31:34;64952.78;;;-141.99;100.00
41686;BME280;27370;42.764;23.432;2023-04-24T22:34:00;64952.78;;;-141.99;100.00
41686;BME280;27370;42.764;23.432;2023-04-24T22:36:25;64952.78;;;-141.99;100.00
41686;BME280;27370;42.764;23.432;2023-04-24T22:38:51;64952.78;;;-141.99;100.00
41686;BME280;27370;42.764;23.432;2023-04-24T22:41:17;64952.78;;;-141.99;100.00
41686;BME280;27370;42.764;23.432;2023-04-24T22:43:43;64952.78;;;-141.99;100.00
41686;BME280;27370;42.764;23.432;2023-04-24T22:46:09;64952.78;;;-141.99;100.00
41686;BME280;27370;42.764;23.432;2023-04-24T22:48:35;64952.78;;;-141.99;100.00
41686;BME280;27370;42.764;23.432;2023-04-24T22:51:00;64952.78;;;-141.99;100.00
41686;BME280;27370;42.764;23.432;2023-04-24T22:53:27;64952.78;;;-141.99;100.00
41686;BME280;27370;42.764;23.432;2023-04-24T22:55:54;64952.78;;;-141.99;100.00
41686;BME280;27370;42.764;23.432;2023-04-24T22:58:20;64952.78;;;-141.99;100.00
41686;BME280;27370;42.764;23.432;2023-04-24T23:00:46;64952.78;;;-141.99;100.00
41686;BME280;27370;42.764;23.432;2023-04-24T23:03:12;64952.78;;;-141.99;100.00
41686;BME280;27370;42.764;23.432;2023-04-24T23:05:38;64952.78;;;-141.99;100.00
41686;BME280;27370;42.764;23.432;2023-04-24T23:08:03;64952.78;;;-141.99;100.00
41686;BME280;27370;42.764;23.432;2023-04-24T23:10:29;64952.78;;;-141.99;100.00
41686;BME280;27370;42.764;23.432;2023-04-24T23:12:55;64952.78;;;-141.99;100.00
41686;BME280;27370;42.764;23.432;2023-04-24T23:15:20;64952.78;;;-141.99;100.00
41686;BME280;27370;42.764;23.432;2023-04-24T23:17:46;64952.78;;;-141.99;100.00
41686;BME280;27370;42.764;23.432;2023-04-24T23:20:11;64952.78;;;-141.99;100.00
41686;BME280;27370;42.764;23.432;2023-04-24T23:22:38;64952.78;;;-141.99;100.00
41686;BME280;27370;42.764;23.432;2023-04-24T23:25:04;64952.78;;;-141.99;100.00
41686;BME280;27370;42.764;23.432;2023-04-24T23:27:30;64952.78;;;-141.99;100.00
41686;BME280;27370;42.764;23.432;2023-04-24T23:29:55;64952.78;;;-141.99;100.00
41686;BME280;27370;42.764;23.432;2023-04-24T23:32:21;64952.78;;;-141.99;100.00
41686;BME280;27370;42.764;23.432;2023-04-24T23:34:46;64952.78;;;-141.99;100.00
41686;BME280;27370;42.764;23.432;2023-04-24T23:37:12;64952.78;;;-141.99;100.00
41686;BME280;27370;42.764;23.432;2023-04-24T23:39:37;64952.78;;;-141.99;100.00
41686;BME280;27370;42.764;23.432;2023-04-24T23:42:03;64952.78;;;-141.99;100.00
41686;BME280;27370;42.764;23.432;2023-04-24T23:44:29;64952.78;;;-141.99;100.00
41686;BME280;27370;42.764;23.432;2023-04-24T23:46:55;64952.78;;;-141.99;100.00
41686;BME280;27370;42.764;23.432;2023-04-24T23:49:21;64952.78;;;-141.99;100.00
41686;BME280;27370;42.764;23.432;2023-04-24T23:51:47;64952.78;;;-141.99;100.00
41686;BME280;27370;42.764;23.432;2023-04-24T23:54:12;64952.78;;;-141.99;100.00
41686;BME280;27370;42.764;23.432;2023-04-24T23:56:38;64952.78;;;-141.99;100.00
41686;BME280;27370;42.764;23.432;2023-04-24T23:59:04;64952.78;;;-141.99;100.00
